Soekarno-Hatta International Airport
WIII : now visible

Airfield :











YOU CAN JOIN US ON...

 
LOGIN :

Register | Disclaimer

   EN    FR    IT 

 









Legend :    VFR   Marginal VFR   IFR   Intensive IFR   Very Intensive IFR
Visi :
Ceiling :
>= 8 km
>= 3000ft
5 to 8 km
1000 to 3000 ft
1500m to 5 km
500 to 1000 ft
800 to 1500m
200 to 500 ft
< 800m
< 200 ft
Symbols :   Thunderstorms  Fog  Heavy snow  Heavy precipitations  Wind > 20 kt







- Airport Elevation : 34 ft
- IATA code : CGK


WIII - Soekarno-Hatta International

CURRENT METAR :
  • 180600Z 32008KT 9999 FEW020 31/24 Q1011 NOSIG

EXPIRED METARs :
  • 180530Z 31006KT 250V350 9999 FEW020 31/24 Q1012 NOSIG
  • 180500Z 30006KT 250V330 9999 FEW020 31/23 Q1013 NOSIG
  • 180430Z 30006KT 270V350 8000 FEW020 30/24 Q1013 NOSIG
  • 180400Z VRB05KT 8000 FEW020 29/24 Q1014 NOSIG
  • 180330Z VRB05KT 7000 FEW020 29/24 Q1014 NOSIG
  • 180300Z VRB05KT 8000 FEW020 29/24 Q1014 NOSIG

TAF TAF WIII
Valid from the 18 at 06:00 until the 19 at 12:00 UTC


180500Z 1806/1912 33012KT 9999 FEW020
WIIF FIR / Asia



MET'MAP, your aeronautical weather chart ! - Copyright ORBIFLY December 2007 - Disclaimer

ORBIFLY MET'MAP TEAM :

Programming & Development : Alexandra Zaïnal
Concept & Development : Baudouin d'Aumeries
Co-Development & Prog : Marc-Olivier Méhu
Technical & hardware support : Manuel Goepfert

Contact : metmap@orbifly.com




SOURCES & CREDITS :

   NOAA       Earth
Advisory